Time;durP1;ratioP1;P1;durP2;ratioP2;P2;SDS_P1;SDS_P2;PMS_P1;PMS_P2;Temp;Humidity;BMP_temperature;BMP_pressure;BME280_temperature;BME280_humidity;BME280_pressure;Samples;Min_cycle;Max_cycle;Signal;HPM_P1;HPM_P2
2022/05/22 00:00:08;;;;;;;9.02;3.40;;;;;;;-149.78;100.00;50254.34;5133237;28;20061;-70
2022/05/22 00:02:34;;;;;;;6.70;3.03;;;;;;;-149.78;100.00;50228.94;5133700;28;20040;-70
2022/05/22 00:05:00;;;;;;;8.55;3.58;;;;;;;-149.78;100.00;50271.97;5137523;27;20054;-70
2022/05/22 00:07:26;;;;;;;9.30;3.22;;;;;;;-149.78;100.00;50260.22;5127861;27;20035;-70
2022/05/22 00:09:52;;;;;;;12.63;3.38;;;;;;;-149.78;100.00;50236.75;5143521;27;20038;-70
2022/05/22 00:12:23;;;;;;;9.88;3.05;;;;;;;-149.78;100.00;50268.03;5148862;27;20035;-70
2022/05/22 00:14:49;;;;;;;11.52;2.88;;;;;;;-149.78;100.00;50248.50;5132481;27;20043;-70
2022/05/22 00:17:14;;;;;;;10.43;2.85;;;;;;;-149.78;100.00;50240.66;5115294;28;20027;-70
2022/05/22 00:19:40;;;;;;;6.65;2.88;;;;;;;-149.78;100.00;50244.59;5095020;28;20356;-70
2022/05/22 00:22:07;;;;;;;7.80;3.25;;;;;;;-149.78;100.00;50264.13;5136793;27;20473;-69
2022/05/22 00:24:33;;;;;;;12.18;2.97;;;;;;;-149.78;100.00;50271.97;5150308;27;20031;-70
2022/05/22 00:27:02;;;;;;;8.30;2.90;;;;;;;-149.78;100.00;50256.31;5118874;27;20459;-70
2022/05/22 00:29:29;;;;;;;7.00;3.20;;;;;;;-149.78;100.00;50281.75;5156015;27;20065;-70
2022/05/22 00:31:54;;;;;;;6.40;2.55;;;;;;;-149.78;100.00;50271.97;5158504;27;20058;-70
2022/05/22 00:34:20;;;;;;;8.75;3.28;;;;;;;-149.78;100.00;50260.22;5143373;27;20379;-70
2022/05/22 00:36:46;;;;;;;9.13;3.50;;;;;;;-149.78;100.00;50256.31;5120453;27;20043;-70
2022/05/22 00:39:12;;;;;;;9.70;3.00;;;;;;;-149.78;100.00;50256.31;5146120;27;20045;-70
2022/05/22 00:41:38;;;;;;;9.18;3.53;;;;;;;-149.78;100.00;50281.75;5158236;27;20045;-70
2022/05/22 00:44:06;;;;;;;8.88;3.80;;;;;;;-149.78;100.00;50266.09;5145683;27;20031;-70
2022/05/22 00:46:33;;;;;;;10.43;4.10;;;;;;;-149.78;100.00;50246.53;5153963;27;20023;-70
2022/05/22 00:49:25;;;;;;;16.00;4.60;;;;;;;-149.78;100.00;50271.97;5122422;27;20079;-70
2022/05/22 00:52:01;;;;;;;12.25;4.30;;;;;;;-149.78;100.00;50275.88;5146660;27;20043;-70
2022/05/22 00:54:33;;;;;;;17.70;4.10;;;;;;;-149.78;100.00;50250.44;5152766;27;20027;-70
2022/05/22 00:57:15;;;;;;;10.32;3.60;;;;;;;-149.78;100.00;50268.03;5140479;27;20038;-70
2022/05/22 00:59:44;;;;;;;13.07;4.10;;;;;;;-149.78;100.00;50258.28;5148817;27;20050;-70
2022/05/22 01:02:13;;;;;;;9.45;3.97;;;;;;;-149.78;100.00;50236.75;5118343;27;20035;-70
2022/05/22 01:04:39;;;;;;;12.75;4.40;;;;;;;-149.78;100.00;50221.13;5138074;27;20080;-70
2022/05/22 01:07:08;;;;;;;8.70;3.80;;;;;;;-149.78;100.00;50248.50;5134990;27;20042;-70
2022/05/22 01:09:35;;;;;;;16.00;4.22;;;;;;;-149.78;100.00;50275.88;5145029;27;20029;-70
2022/05/22 01:12:15;;;;;;;13.35;4.20;;;;;;;-149.78;100.00;50228.94;5145689;27;20482;-70
2022/05/22 01:14:42;;;;;;;11.07;3.55;;;;;;;-149.78;100.00;50230.88;5137023;27;20073;-70
2022/05/22 01:17:10;;;;;;;10.98;4.00;;;;;;;-149.78;100.00;50244.59;5134405;27;20171;-70
2022/05/22 01:19:36;;;;;;;12.23;4.32;;;;;;;-149.78;100.00;50236.75;5145208;27;20109;-70
2022/05/22 01:22:08;;;;;;;13.60;4.45;;;;;;;-149.78;100.00;50248.50;5145161;27;20096;-70
2022/05/22 01:24:34;;;;;;;17.35;4.45;;;;;;;-149.78;100.00;50275.88;5149481;27;20034;-70
2022/05/22 01:27:03;;;;;;;13.20;4.82;;;;;;;-149.78;100.00;50201.56;5137274;27;20027;-70
2022/05/22 01:29:29;;;;;;;11.25;4.22;;;;;;;-149.78;100.00;50256.31;5136338;27;20459;-69
2022/05/22 01:31:54;;;;;;;14.15;4.35;;;;;;;-149.78;100.00;50236.75;5118006;27;20042;-69
2022/05/22 01:34:20;;;;;;;10.48;3.55;;;;;;;-149.78;100.00;50260.22;5137274;27;20074;-70
2022/05/22 01:36:46;;;;;;;9.30;3.55;;;;;;;-149.78;100.00;50250.44;5117627;27;20472;-70
2022/05/22 01:39:11;;;;;;;9.70;3.97;;;;;;;-149.78;100.00;50295.44;5140957;27;20061;-69
2022/05/22 01:41:37;;;;;;;12.20;4.10;;;;;;;-149.78;100.00;50244.59;5147921;27;20079;-69
2022/05/22 01:44:04;;;;;;;13.32;3.85;;;;;;;-149.78;100.00;50252.41;5117973;27;20172;-70
2022/05/22 01:46:30;;;;;;;11.00;3.42;;;;;;;-149.78;100.00;50291.50;5135959;27;20049;-69
2022/05/22 01:48:56;;;;;;;9.80;3.95;;;;;;;-149.78;100.00;50258.28;5134627;27;20129;-69
2022/05/22 01:51:23;;;;;;;12.73;4.72;;;;;;;-149.78;100.00;50264.13;5142651;27;20105;-69
2022/05/22 01:53:49;;;;;;;13.45;3.88;;;;;;;-149.78;100.00;50287.59;5146395;27;20020;-69
2022/05/22 01:56:15;;;;;;;13.60;3.90;;;;;;;-149.78;100.00;50252.41;5128535;27;20038;-68
2022/05/22 01:58:40;;;;;;;11.07;3.85;;;;;;;-149.78;100.00;50236.75;5150802;27;20065;-69
2022/05/22 02:01:08;;;;;;;11.25;4.63;;;;;;;-149.78;100.00;50252.41;5137862;27;20063;-69
2022/05/22 02:03:34;;;;;;;9.75;3.80;;;;;;;-149.78;100.00;50268.03;5115339;28;20023;-68
2022/05/22 02:06:00;;;;;;;9.82;3.95;;;;;;;-149.78;100.00;50314.97;5120630;27;20124;-69
2022/05/22 02:08:26;;;;;;;10.75;3.67;;;;;;;-149.78;100.00;50240.66;5135692;27;20062;-69
2022/05/22 02:11:02;;;;;;;8.05;3.58;;;;;;;-149.78;100.00;50275.88;5135551;27;20058;-69
2022/05/22 02:13:34;;;;;;;10.70;3.83;;;;;;;-149.78;100.00;50232.84;5135905;27;20038;-69
2022/05/22 02:16:00;;;;;;;8.98;2.80;;;;;;;-149.78;100.00;50250.44;5117467;27;20367;-69
2022/05/22 02:18:25;;;;;;;11.63;3.03;;;;;;;-149.78;100.00;50266.09;5135672;27;20035;-69
2022/05/22 02:20:51;;;;;;;8.13;2.47;;;;;;;-149.78;100.00;50258.28;5135497;27;20254;-69
2022/05/22 02:23:18;;;;;;;9.55;2.70;;;;;;;-149.78;100.00;50248.50;5135399;27;20556;-69
2022/05/22 02:25:47;;;;;;;7.68;2.50;;;;;;;-149.78;100.00;50277.81;5132452;27;20031;-69
2022/05/22 02:28:14;;;;;;;5.95;2.60;;;;;;;-149.78;100.00;50268.03;5111774;27;20100;-69
2022/05/22 02:30:42;;;;;;;7.80;2.15;;;;;;;-149.78;100.00;50275.88;5134875;27;20042;-70
2022/05/22 02:33:10;;;;;;;11.50;2.50;;;;;;;-149.78;100.00;50219.16;5117013;27;20041;-69
2022/05/22 02:35:36;;;;;;;4.50;2.10;;;;;;;-149.78;100.00;50248.50;5135114;27;20041;-69
2022/05/22 02:38:03;;;;;;;5.57;2.13;;;;;;;-149.78;100.00;50279.78;5130568;27;20035;-69
2022/05/22 02:40:31;;;;;;;6.75;2.10;;;;;;;-149.78;100.00;50271.97;5135262;27;20478;-69
2022/05/22 02:42:57;;;;;;;6.47;2.40;;;;;;;-149.78;100.00;50258.28;5135133;27;20031;-69
2022/05/22 02:45:28;;;;;;;10.98;2.22;;;;;;;-149.78;100.00;50266.09;5135170;27;20035;-69
2022/05/22 02:47:54;;;;;;;6.32;2.97;;;;;;;-149.78;100.00;50252.41;5114813;28;20023;-69
2022/05/22 02:50:24;;;;;;;9.98;3.15;;;;;;;-149.78;100.00;50281.75;5096634;28;20478;-69
2022/05/22 02:52:50;;;;;;;7.28;2.83;;;;;;;-149.78;100.00;50248.50;5123115;27;20671;-69
2022/05/22 02:55:18;;;;;;;10.43;3.20;;;;;;;-149.78;100.00;50258.28;5134684;27;20036;-68
2022/05/22 02:57:44;;;;;;;8.02;3.33;;;;;;;-149.78;100.00;50264.13;5116060;27;20099;-69
2022/05/22 03:00:20;;;;;;;12.50;3.78;;;;;;;-149.78;100.00;50264.13;5134814;27;20428;-68
2022/05/22 03:02:45;;;;;;;11.27;4.75;;;;;;;-149.78;100.00;50277.81;5115377;27;20027;-69
2022/05/22 03:05:12;;;;;;;16.48;3.45;;;;;;;-149.78;100.00;50268.03;5116556;27;20039;-69
2022/05/22 03:07:38;;;;;;;12.63;3.92;;;;;;;-149.78;100.00;50279.78;5116638;27;20535;-68
2022/05/22 03:10:07;;;;;;;5.72;3.47;;;;;;;-149.78;100.00;50275.88;5134621;27;20031;-69
2022/05/22 03:12:37;;;;;;;8.00;3.15;;;;;;;-149.78;100.00;50268.03;5130486;27;20054;-69
2022/05/22 03:15:06;;;;;;;10.35;3.50;;;;;;;-149.78;100.00;50291.50;5134486;27;20053;-68
2022/05/22 03:17:32;;;;;;;4.82;3.10;;;;;;;-149.78;100.00;50303.25;5134555;27;20486;-69
2022/05/22 03:19:58;;;;;;;14.70;3.53;;;;;;;-149.78;100.00;50256.31;5117169;27;20038;-68
2022/05/22 03:22:25;;;;;;;8.00;3.70;;;;;;;-149.78;100.00;50287.59;5113840;28;20035;-69
2022/05/22 03:24:50;;;;;;;11.00;3.60;;;;;;;-149.78;100.00;50266.09;5095578;28;20032;-70
2022/05/22 03:27:18;;;;;;;9.55;2.88;;;;;;;-149.78;100.00;50287.59;5115208;27;20036;-68
2022/05/22 03:29:46;;;;;;;6.90;3.25;;;;;;;-149.78;100.00;50307.16;5125141;27;20083;-68
2022/05/22 03:32:12;;;;;;;7.97;3.30;;;;;;;-149.78;100.00;50271.97;5134202;27;20031;-70
2022/05/22 03:34:39;;;;;;;12.38;3.08;;;;;;;-149.78;100.00;50268.03;5098911;27;20036;-68
2022/05/22 03:37:05;;;;;;;7.97;3.25;;;;;;;-149.78;100.00;50275.88;5116030;28;20076;-70
2022/05/22 03:39:31;;;;;;;7.20;2.38;;;;;;;-149.78;100.00;50291.50;5115138;27;20274;-69
2022/05/22 03:41:58;;;;;;;5.55;2.53;;;;;;;-149.78;100.00;50260.22;5115796;27;20035;-69
2022/05/22 03:44:24;;;;;;;7.07;2.53;;;;;;;-149.78;100.00;50264.13;5113576;28;20038;-69
2022/05/22 03:46:49;;;;;;;10.68;2.75;;;;;;;-149.78;100.00;50289.56;5127535;27;20118;-69
2022/05/22 03:49:15;;;;;;;8.27;2.97;;;;;;;-149.78;100.00;50271.97;5133926;27;20117;-69
2022/05/22 03:51:42;;;;;;;9.45;2.97;;;;;;;-149.78;100.00;50236.75;5098837;28;20035;-69
2022/05/22 03:54:08;;;;;;;9.73;3.28;;;;;;;-149.78;100.00;50287.59;5134123;28;20593;-70
2022/05/22 03:56:35;;;;;;;6.97;2.67;;;;;;;-149.78;100.00;50279.78;5133880;28;20063;-70
2022/05/22 03:59:02;;;;;;;7.78;2.80;;;;;;;-149.78;100.00;50279.78;5134070;28;20271;-70
2022/05/22 04:01:29;;;;;;;6.40;2.60;;;;;;;-149.78;100.00;50299.34;5134139;28;20027;-69
2022/05/22 04:03:56;;;;;;;5.05;2.40;;;;;;;-149.78;100.00;50264.13;5136448;27;20055;-69
2022/05/22 04:06:22;;;;;;;10.32;2.30;;;;;;;-149.78;100.00;50250.44;5138238;27;20031;-69
2022/05/22 04:08:48;;;;;;;7.55;2.95;;;;;;;-149.78;100.00;50279.78;5138028;27;20367;-69
2022/05/22 04:11:17;;;;;;;7.35;2.45;;;;;;;-149.78;100.00;50279.78;5102404;27;20034;-69
2022/05/22 04:13:43;;;;;;;6.80;2.35;;;;;;;-149.78;100.00;50279.78;5137718;27;20031;-69
2022/05/22 04:16:11;;;;;;;7.32;2.38;;;;;;;-149.78;100.00;50303.25;5137521;27;20042;-69
2022/05/22 04:18:39;;;;;;;9.20;2.50;;;;;;;-149.78;100.00;50281.75;5137702;27;20058;-69
2022/05/22 04:21:05;;;;;;;11.88;2.15;;;;;;;-149.78;100.00;50264.13;5137057;27;20027;-70
2022/05/22 04:26:15;;;;;;;4.68;2.30;;;;;;;-149.78;100.00;50291.50;5137735;27;20035;-69
2022/05/22 04:28:41;;;;;;;7.35;2.40;;;;;;;-149.78;100.00;50283.69;5119467;27;20045;-69
2022/05/22 04:31:07;;;;;;;4.28;1.90;;;;;;;-149.78;100.00;50248.50;5119340;27;20122;-69
2022/05/22 04:33:33;;;;;;;6.25;2.45;;;;;;;-149.78;100.00;50295.44;5137428;27;20027;-70
2022/05/22 04:36:00;;;;;;;6.97;2.38;;;;;;;-149.78;100.00;50252.41;5137495;27;20038;-70
2022/05/22 04:38:26;;;;;;;8.30;2.45;;;;;;;-149.78;100.00;50240.66;5137585;27;20067;-69
2022/05/22 04:41:02;;;;;;;6.55;2.40;;;;;;;-149.78;100.00;50256.31;5119295;27;20497;-70
2022/05/22 04:43:30;;;;;;;7.68;2.15;;;;;;;-149.78;100.00;50264.13;5137562;27;20042;-69
2022/05/22 04:45:57;;;;;;;8.27;2.65;;;;;;;-149.78;100.00;50295.44;5137622;27;20027;-69
2022/05/22 04:48:24;;;;;;;4.60;2.08;;;;;;;-149.78;100.00;50271.97;5119068;27;20027;-69
2022/05/22 04:50:52;;;;;;;7.90;2.33;;;;;;;-149.78;100.00;50244.59;5137498;27;20042;-69
2022/05/22 04:53:20;;;;;;;4.75;2.17;;;;;;;-149.78;100.00;50279.78;5137322;27;20456;-69
2022/05/22 04:55:47;;;;;;;4.45;1.88;;;;;;;-149.78;100.00;50264.13;5137133;27;20031;-69
2022/05/22 04:58:14;;;;;;;7.93;2.35;;;;;;;-149.78;100.00;50279.78;5113250;27;20098;-69
2022/05/22 05:00:40;;;;;;;7.78;1.90;;;;;;;-149.78;100.00;50228.94;5101777;27;20386;-69
2022/05/22 05:03:06;;;;;;;6.72;1.58;;;;;;;-149.78;100.00;50228.94;5136765;27;20420;-69
2022/05/22 05:05:32;;;;;;;3.70;2.03;;;;;;;-149.78;100.00;50268.03;5118458;27;20031;-69
2022/05/22 05:07:58;;;;;;;5.43;2.10;;;;;;;-149.78;100.00;50275.88;5118456;27;20035;-69
2022/05/22 05:10:24;;;;;;;4.78;1.85;;;;;;;-149.78;100.00;50236.75;5136806;27;20039;-69
2022/05/22 05:12:51;;;;;;;4.38;2.17;;;;;;;-149.78;100.00;50268.03;5136755;27;20065;-69
2022/05/22 05:15:19;;;;;;;4.15;1.80;;;;;;;-149.78;100.00;50242.63;5135629;27;20042;-68
2022/05/22 05:17:45;;;;;;;6.43;2.55;;;;;;;-149.78;100.00;50252.41;5136570;27;20034;-69
2022/05/22 05:20:13;;;;;;;5.78;1.98;;;;;;;-149.78;100.00;50252.41;5118380;27;20035;-69
2022/05/22 05:22:40;;;;;;;4.22;1.60;;;;;;;-149.78;100.00;50219.16;5118451;27;20080;-70
2022/05/22 05:25:06;;;;;;;6.60;1.88;;;;;;;-149.78;100.00;50256.31;5136743;27;20031;-70
2022/05/22 05:27:32;;;;;;;2.70;1.55;;;;;;;-149.78;100.00;50271.97;5118082;27;20049;-69
2022/05/22 05:29:58;;;;;;;5.40;2.00;;;;;;;-149.78;100.00;50258.28;5134853;27;20035;-70
2022/05/22 05:32:25;;;;;;;4.55;1.70;;;;;;;-149.78;100.00;50248.50;5096855;28;20027;-70
2022/05/22 05:35:02;;;;;;;6.30;2.05;;;;;;;-149.78;100.00;50264.13;5110145;27;20027;-70
2022/05/22 05:37:28;;;;;;;4.28;1.92;;;;;;;-149.78;100.00;50240.66;5115999;28;20038;-70
2022/05/22 05:39:54;;;;;;;7.82;2.35;;;;;;;-149.78;100.00;50244.59;5097779;28;20031;-69
2022/05/22 05:42:21;;;;;;;5.97;2.20;;;;;;;-149.78;100.00;50275.88;5125951;27;20029;-70
2022/05/22 05:44:47;;;;;;;6.10;2.00;;;;;;;-149.78;100.00;50248.50;5145204;27;20035;-70
2022/05/22 05:47:13;;;;;;;5.05;2.17;;;;;;;-149.78;100.00;50244.59;5135794;27;20058;-70
2022/05/22 05:49:40;;;;;;;9.55;1.92;;;;;;;-149.78;100.00;50268.03;5136397;27;20063;-69
2022/05/22 05:52:06;;;;;;;9.75;2.50;;;;;;;-149.78;100.00;50234.81;5100844;27;20114;-70
2022/05/22 05:54:32;;;;;;;7.10;2.97;;;;;;;-149.78;100.00;50260.22;5136170;27;20031;-69
2022/05/22 05:56:58;;;;;;;4.82;1.70;;;;;;;-149.78;100.00;50225.03;5135920;27;20478;-69
2022/05/22 05:59:25;;;;;;;4.10;2.00;;;;;;;-149.78;100.00;50232.84;5136131;27;20035;-69
2022/05/22 06:01:51;;;;;;;4.90;1.90;;;;;;;-149.78;100.00;50268.03;5117839;27;20027;-70
2022/05/22 06:04:16;;;;;;;4.80;1.70;;;;;;;-149.78;100.00;50236.75;5117451;27;20478;-69
2022/05/22 06:06:42;;;;;;;4.40;1.95;;;;;;;-149.78;100.00;50258.28;5135872;27;20087;-70
2022/05/22 06:09:07;;;;;;;5.82;1.80;;;;;;;-149.78;100.00;50242.63;5117546;27;20130;-70
2022/05/22 06:11:33;;;;;;;3.28;1.67;;;;;;;-149.78;100.00;50232.84;5135460;27;20035;-70
2022/05/22 06:13:59;;;;;;;3.58;1.60;;;;;;;-149.78;100.00;50268.03;5117154;27;20130;-69
2022/05/22 06:16:26;;;;;;;3.25;1.98;;;;;;;-149.78;100.00;50262.19;5100456;27;20028;-70
2022/05/22 06:18:52;;;;;;;8.93;2.30;;;;;;;-149.78;100.00;50244.59;5117184;27;20087;-69
2022/05/22 06:21:22;;;;;;;5.82;1.70;;;;;;;-149.78;100.00;50240.66;5117658;27;20077;-69
2022/05/22 06:23:48;;;;;;;5.80;1.80;;;;;;;-149.78;100.00;50230.88;5135620;27;20031;-69
2022/05/22 06:26:20;;;;;;;7.45;2.38;;;;;;;-149.78;100.00;50252.41;5125667;27;20458;-70
2022/05/22 06:28:47;;;;;;;6.70;1.75;;;;;;;-149.78;100.00;50244.59;5123570;27;20042;-69
2022/05/22 06:31:13;;;;;;;3.25;1.42;;;;;;;-149.78;100.00;50232.84;5117119;27;20031;-69
2022/05/22 06:33:40;;;;;;;5.43;1.73;;;;;;;-149.78;100.00;50209.38;5129386;27;20032;-70
2022/05/22 06:36:11;;;;;;;5.72;2.00;;;;;;;-149.78;100.00;50244.59;5129222;27;20108;-70
2022/05/22 06:41:21;;;;;;;5.68;2.00;;;;;;;-149.78;100.00;50242.63;5129982;27;20470;-69
2022/05/22 06:43:49;;;;;;;5.53;1.88;;;;;;;-149.78;100.00;50209.38;5095984;28;20077;-70
2022/05/22 06:46:16;;;;;;;2.47;1.52;;;;;;;-149.78;100.00;50223.06;5124536;27;20500;-69
2022/05/22 06:48:42;;;;;;;6.13;1.80;;;;;;;-149.78;100.00;50244.59;5119430;27;20383;-71
2022/05/22 06:51:09;;;;;;;3.88;1.85;;;;;;;-149.78;100.00;50213.28;5098612;28;20031;-70
2022/05/22 06:53:34;;;;;;;4.50;1.83;;;;;;;-149.78;100.00;50228.94;5117461;27;20038;-71
2022/05/22 06:56:00;;;;;;;4.20;1.58;;;;;;;-149.78;100.00;50225.03;5102445;28;20028;-69
2022/05/22 06:58:26;;;;;;;3.58;1.45;;;;;;;-149.78;100.00;50244.59;5104270;27;20055;-68
2022/05/22 07:00:52;;;;;;;7.57;1.95;;;;;;;-149.78;100.00;50221.13;5125425;27;20043;-68
2022/05/22 07:03:21;;;;;;;6.50;1.88;;;;;;;-149.78;100.00;50236.75;5099219;27;20055;-68
2022/05/22 07:05:47;;;;;;;5.20;1.63;;;;;;;-149.78;100.00;50189.81;5122025;27;20034;-69
2022/05/22 07:08:13;;;;;;;8.60;2.10;;;;;;;-149.78;100.00;50217.19;5099947;27;20404;-70
2022/05/22 07:13:22;;;;;;;3.63;1.85;;;;;;;-149.78;100.00;50178.09;5114904;27;20119;-70
2022/05/22 07:16:03;;;;;;;3.22;1.80;;;;;;;-149.78;100.00;50230.88;5083356;28;20107;-68
2022/05/22 07:18:29;;;;;;;7.05;1.83;;;;;;;-149.78;100.00;50209.38;5112642;27;20034;-70
2022/05/22 07:20:55;;;;;;;4.15;1.90;;;;;;;-149.78;100.00;50197.66;5122444;27;20035;-70
2022/05/22 07:23:21;;;;;;;4.35;1.50;;;;;;;-149.78;100.00;50205.47;5113280;27;20026;-69
2022/05/22 07:25:46;;;;;;;4.43;1.65;;;;;;;-149.78;100.00;50185.91;5118571;27;20474;-71
2022/05/22 07:28:12;;;;;;;4.90;1.60;;;;;;;-149.78;100.00;50201.56;5100583;27;20068;-70
2022/05/22 07:30:38;;;;;;;5.00;1.73;;;;;;;-149.78;100.00;50185.91;5106415;27;20384;-71
2022/05/22 07:33:04;;;;;;;6.65;1.90;;;;;;;-149.78;100.00;50185.91;5099702;28;20072;-71
2022/05/22 07:35:29;;;;;;;4.30;1.67;;;;;;;-149.78;100.00;50225.03;5100950;27;20039;-71
2022/05/22 07:37:56;;;;;;;2.85;1.40;;;;;;;-149.78;100.00;50201.56;5100302;27;20066;-71
2022/05/22 07:40:22;;;;;;;2.80;1.20;;;;;;;-149.78;100.00;50205.47;5097872;27;20031;-71
2022/05/22 07:42:47;;;;;;;2.75;1.48;;;;;;;-149.78;100.00;50201.56;5098786;27;20035;-70
2022/05/22 07:45:15;;;;;;;3.90;1.50;;;;;;;-149.78;100.00;50203.50;5133761;27;20055;-70
2022/05/22 07:47:41;;;;;;;4.90;1.77;;;;;;;-149.78;100.00;50178.09;5133977;27;20041;-71
2022/05/22 07:50:16;;;;;;;3.08;1.60;;;;;;;-149.78;100.00;50217.19;5112114;28;20036;-71
2022/05/22 07:52:44;;;;;;;3.38;1.40;;;;;;;-149.78;100.00;50203.50;5127127;28;20055;-72
2022/05/22 07:55:14;;;;;;;3.78;1.73;;;;;;;-149.78;100.00;50201.56;5110235;28;20484;-74
2022/05/22 07:57:44;;;;;;;4.05;1.48;;;;;;;-149.78;100.00;50215.25;5097537;28;20062;-75
2022/05/22 08:00:18;;;;;;;2.20;1.50;;;;;;;-149.78;100.00;50162.44;5106699;28;20039;-70
2022/05/22 08:02:44;;;;;;;3.25;1.50;;;;;;;-149.78;100.00;50205.47;5096378;28;20047;-73
2022/05/22 08:05:10;;;;;;;4.20;1.38;;;;;;;-149.78;100.00;50205.47;5123800;28;20102;-72
2022/05/22 08:07:36;;;;;;;5.05;1.70;;;;;;;-149.78;100.00;50183.97;5102852;28;20036;-68
2022/05/22 08:10:04;;;;;;;5.78;1.48;;;;;;;-149.78;100.00;50201.56;5124205;28;20039;-69
2022/05/22 08:12:39;;;;;;;5.15;1.52;;;;;;;-149.78;100.00;50150.72;5113691;28;20027;-69
2022/05/22 08:15:07;;;;;;;3.20;1.52;;;;;;;-149.78;100.00;50162.44;5098565;28;20032;-70
2022/05/22 08:17:36;;;;;;;2.90;1.60;;;;;;;-149.78;100.00;50182.00;5113472;28;20028;-68
2022/05/22 08:20:13;;;;;;;2.30;1.30;;;;;;;-149.78;100.00;50135.06;5095339;28;20035;-69
2022/05/22 08:22:45;;;;;;;2.70;1.30;;;;;;;-149.78;100.00;50138.97;5123031;28;20367;-73
2022/05/22 08:25:17;;;;;;;3.63;1.52;;;;;;;-149.78;100.00;50138.97;5096020;28;20088;-65
2022/05/22 08:27:43;;;;;;;3.38;1.42;;;;;;;-149.78;100.00;50140.94;5113305;28;20031;-69
2022/05/22 08:30:11;;;;;;;3.38;1.45;;;;;;;-149.78;100.00;50154.63;5113223;28;20493;-68
2022/05/22 08:32:38;;;;;;;5.13;1.60;;;;;;;-149.78;100.00;50088.13;5094848;28;20031;-72
2022/05/22 08:35:06;;;;;;;2.47;1.70;;;;;;;-149.78;100.00;50072.50;5118774;28;20039;-68
2022/05/22 08:37:34;;;;;;;3.03;1.23;;;;;;;-149.78;100.00;50058.78;5105826;28;20023;-75
2022/05/22 08:40:00;;;;;;;5.30;1.60;;;;;;;-149.78;100.00;50099.88;5129546;28;20062;-73
2022/05/22 08:42:38;;;;;;;4.32;1.80;;;;;;;-149.78;100.00;50076.41;5133392;28;20027;-68
2022/05/22 08:45:11;;;;;;;2.33;1.60;;;;;;;-149.78;100.00;50103.78;5133523;28;20033;-69
2022/05/22 08:47:39;;;;;;;1.95;1.20;;;;;;;-149.78;100.00;50127.25;5113008;28;20058;-70
2022/05/22 08:50:11;;;;;;;2.20;1.60;;;;;;;-149.78;100.00;50115.50;5095803;28;20035;-71
2022/05/22 08:52:50;;;;;;;4.10;1.70;;;;;;;-149.78;100.00;50133.09;5116618;28;20027;-69
2022/05/22 08:55:23;;;;;;;3.40;1.67;;;;;;;-149.78;100.00;50152.66;5116648;28;20035;-66
2022/05/22 09:00:40;;;;;;;2.17;1.50;;;;;;;-149.78;100.00;50125.28;5122030;27;20180;-69
2022/05/22 09:03:29;;;;;;;3.72;1.63;;;;;;;-149.78;100.00;50107.69;5137104;27;20027;-68
2022/05/22 09:06:03;;;;;;;5.93;2.08;;;;;;;-149.78;100.00;50107.69;5137098;27;20031;-68
2022/05/22 09:08:38;;;;;;;4.03;1.48;;;;;;;-149.78;100.00;50158.53;5136880;27;20180;-68
2022/05/22 09:11:11;;;;;;;3.42;1.90;;;;;;;-149.78;100.00;50158.53;5136809;27;20027;-74
2022/05/22 09:13:49;;;;;;;3.55;1.52;;;;;;;-149.78;100.00;50131.16;5137008;27;20023;-70
2022/05/22 09:16:27;;;;;;;4.90;1.70;;;;;;;-149.78;100.00;50127.25;5114542;27;20026;-71
2022/05/22 09:18:57;;;;;;;4.45;1.85;;;;;;;-149.78;100.00;50150.72;5116340;27;20055;-71
2022/05/22 09:21:44;;;;;;;3.35;2.30;;;;;;;-149.78;100.00;50158.53;5120597;27;20028;-72
2022/05/22 09:24:31;;;;;;;3.15;2.30;;;;;;;-149.78;100.00;50123.34;5115814;28;20031;-70
2022/05/22 09:27:07;;;;;;;4.78;2.85;;;;;;;-149.78;100.00;50154.63;5116072;28;20359;-72
2022/05/22 09:29:56;;;;;;;8.32;3.05;;;;;;;-149.78;100.00;50154.63;5115990;28;20093;-70
2022/05/22 09:32:41;;;;;;;7.82;4.18;;;;;;;-149.78;100.00;50162.44;5116066;28;20092;-70
2022/05/22 09:35:29;;;;;;;7.30;4.30;;;;;;;-149.78;100.00;50166.34;5121660;27;20031;-73
2022/05/22 09:38:04;;;;;;;7.65;4.15;;;;;;;-149.78;100.00;50162.44;5118135;27;20098;-71
2022/05/22 09:40:38;;;;;;;6.97;4.13;;;;;;;-149.78;100.00;50154.63;5136304;27;20030;-68
2022/05/22 09:43:22;;;;;;;6.82;3.70;;;;;;;-149.78;100.00;50146.81;5117885;27;20038;-69
2022/05/22 09:45:59;;;;;;;8.80;3.95;;;;;;;-149.78;100.00;50111.59;5136103;27;20023;-71
2022/05/22 09:48:31;;;;;;;7.53;3.88;;;;;;;-149.78;100.00;50162.44;5126347;27;20146;-71
2022/05/22 09:51:30;;;;;;;9.80;3.75;;;;;;;-149.78;100.00;50119.41;5115409;28;20059;-70
2022/05/22 09:54:20;;;;;;;7.50;3.50;;;;;;;-149.78;100.00;50131.16;5115343;28;20030;-71
2022/05/22 09:57:03;;;;;;;6.32;3.80;;;;;;;-149.78;100.00;50174.19;5120056;27;20032;-70
2022/05/22 09:59:31;;;;;;;4.45;2.92;;;;;;;-149.78;100.00;50103.78;5100408;27;20443;-70
2022/05/22 10:02:04;;;;;;;6.00;3.17;;;;;;;-149.78;100.00;50082.25;5134706;27;20367;-72
2022/05/22 10:05:07;;;;;;;4.82;3.15;;;;;;;-149.78;100.00;50119.41;5113372;27;20032;-74
2022/05/22 10:07:44;;;;;;;7.57;3.60;;;;;;;-149.78;100.00;50094.00;5112850;27;20039;-70
2022/05/22 10:10:22;;;;;;;8.65;3.63;;;;;;;-149.78;100.00;50103.78;5127359;27;20041;-72
2022/05/22 10:13:04;;;;;;;7.25;3.88;;;;;;;-149.78;100.00;50045.09;5128025;27;20401;-70
2022/05/22 10:15:52;;;;;;;6.18;3.40;;;;;;;-149.78;100.00;50023.59;5128372;27;20027;-71
2022/05/22 10:18:28;;;;;;;4.72;3.53;;;;;;;-149.78;100.00;50009.91;5122571;27;20057;-71
2022/05/22 10:21:18;;;;;;;5.63;3.92;;;;;;;-149.78;100.00;50025.56;5135068;27;20031;-71
2022/05/22 10:23:58;;;;;;;5.80;3.53;;;;;;;-149.78;100.00;50009.91;5116902;27;20042;-69
2022/05/22 10:27:01;;;;;;;6.95;3.28;;;;;;;-149.78;100.00;50049.03;5115675;27;20025;-69
2022/05/22 10:29:40;;;;;;;3.92;2.95;;;;;;;-149.78;100.00;50029.47;5091410;27;20467;-69
2022/05/22 10:32:19;;;;;;;4.68;2.97;;;;;;;-149.78;100.00;50037.28;5113767;28;20069;-70
2022/05/22 10:35:04;;;;;;;5.43;2.88;;;;;;;-149.78;100.00;50049.03;5117190;27;20019;-72
2022/05/22 10:38:16;;;;;;;4.45;3.38;;;;;;;-149.78;100.00;49998.19;5114196;27;20522;-73
2022/05/22 10:43:36;;;;;;;3.30;2.10;;;;;;;-149.78;100.00;49990.34;5122099;27;20035;-73
2022/05/22 10:46:02;;;;;;;2.95;2.20;;;;;;;-149.78;100.00;49994.25;5120110;27;20483;-73
2022/05/22 10:48:31;;;;;;;2.85;2.20;;;;;;;-149.78;100.00;50027.50;5121943;27;20084;-69
2022/05/22 10:51:11;;;;;;;5.03;2.17;;;;;;;-149.78;100.00;50006.00;5090806;27;20382;-74
2022/05/22 10:53:46;;;;;;;3.00;2.00;;;;;;;-149.78;100.00;49998.19;5112283;27;20027;-73
2022/05/22 10:56:18;;;;;;;3.20;2.47;;;;;;;-149.78;100.00;49998.19;5105519;27;20031;-72
2022/05/22 10:58:58;;;;;;;;;;;;;;;-149.78;100.00;50006.00;5124772;27;20475;-72
2022/05/22 11:01:33;;;;;;;3.42;2.17;;;;;;;-149.78;100.00;49982.53;5104789;27;20303;-74
2022/05/22 11:04:14;;;;;;;3.53;2.00;;;;;;;-149.78;100.00;49982.53;5102754;27;20081;-72
2022/05/22 11:07:01;;;;;;;3.13;1.90;;;;;;;-149.78;100.00;49968.84;5124580;27;20011;-74
2022/05/22 11:09:31;;;;;;;5.18;2.33;;;;;;;-149.78;100.00;49982.53;5117713;27;20067;-72
2022/05/22 11:12:11;;;;;;;4.28;1.20;;;;;;;-149.78;100.00;49998.19;5086536;27;20038;-72
2022/05/22 11:14:37;;;;;;;2.25;1.40;;;;;;;-149.78;100.00;49994.25;5116658;27;20540;-73
2022/05/22 11:17:13;;;;;;;3.58;1.55;;;;;;;-149.78;100.00;50037.28;5124472;27;20192;-74
2022/05/22 11:19:42;;;;;;;3.47;1.60;;;;;;;-149.78;100.00;50029.47;5116133;27;20027;-73
2022/05/22 11:22:31;;;;;;;2.35;1.30;;;;;;;-149.78;100.00;50019.69;5119042;27;20506;-74
2022/05/22 11:25:00;;;;;;;2.28;1.27;;;;;;;-149.78;100.00;50009.91;5127609;27;20045;-74
2022/05/22 11:27:42;;;;;;;3.75;1.30;;;;;;;-149.78;100.00;49994.25;5132101;27;20066;-73
2022/05/22 11:30:18;;;;;;;1.73;1.00;;;;;;;-149.78;100.00;50013.81;5115077;27;20035;-74
2022/05/22 11:32:56;;;;;;;2.40;1.20;;;;;;;-149.78;100.00;50037.28;5116991;27;20051;-73
2022/05/22 11:35:38;;;;;;;1.95;0.90;;;;;;;-149.78;100.00;50033.38;5118342;27;20023;-74